ADDS METAR Data INFO
IDs: Format: Raw Decoded Include TAF

Data at: 0518 UTC 19 Jan 2018

KVAF 190455Z AUTO 11013KT OVC030 15/09 A3036 RMK A01
KVAF 190435Z AUTO 11014KT 6SM HZ OVC029 15/09 A3037 RMK A01
KVAF 190415Z AUTO 10012KT 5SM HZ OVC029 15/09 A3037 RMK A01
KVAF 190355Z AUTO 11014G19KT 6SM HZ OVC029 15/09 A3037 RMK A01
KVAF 190335Z AUTO 10014KT 6SM HZ OVC030 15/08 A3037 RMK A01
KVAF 190315Z AUTO 11014KT 6SM HZ OVC031 14/08 A3037 RMK A01
KVAF 190255Z AUTO 11014KT 6SM HZ OVC031 14/08 A3037 RMK A01
KVAF 190235Z AUTO 11014KT 6SM HZ OVC030 14/08 A3036 RMK A01
KVAF 190215Z AUTO 10015KT 8SM OVC027 14/09 A3036 RMK A01
KVAF 190155Z AUTO 08015KT 6SM HZ OVC030 14/08 A3037 RMK A01
KVAF 190135Z AUTO 08014KT 6SM HZ OVC029 14/08 A3037 RMK A01
KVAF 190115Z AUTO 08012G18KT 7SM OVC029 14/08 A3036 RMK A01
KVAF 190055Z AUTO 08013KT 6SM HZ OVC031 14/07 A3036 RMK A01
KVAF 190035Z AUTO 09014KT 6SM HZ OVC033 14/07 A3036 RMK A01
KVAF 190015Z AUTO 07012KT 7SM OVC031 13/07 A3037 RMK A01
KVAF 182355Z AUTO 08014G19KT 6SM HZ BKN030 13/07 A3035 RMK A01
KVAF 182335Z AUTO 07017G22KT 4SM HZ BKN029 13/07 A3034 RMK A01
KVAF 182315Z AUTO 07019G24KT 5SM HZ OVC028 13/07 A3034 RMK A01
KVAF 182255Z AUTO 08014G20KT 6SM HZ OVC029 13/07 A3035 RMK A01
KVAF 182235Z AUTO 07018KT 6SM HZ BKN029 BKN034 OVC075 13/07 A3035 RMK A01
KVAF 182215Z AUTO 08014KT 5SM HZ SCT030 BKN034 OVC075 13/07 A3036 RMK A01
KVAF 182155Z AUTO 07015G22KT 5SM HZ BKN030 BKN036 BKN075 13/07 A3036 RMK A01
KVAF 182135Z AUTO 08017KT 6SM HZ BKN029 OVC034 13/07 A3036 RMK A01
KVAF 182115Z AUTO 07017KT 4SM HZ BKN027 OVC032 13/07 A3036 RMK A01
KVAF 182055Z AUTO 07014G20KT 6SM HZ OVC029 13/07 A3037 RMK A01
KVAF 182035Z AUTO 07014G22KT 6SM HZ BKN028 OVC034 13/07 A3037 RMK A01
KVAF 182015Z AUTO 08017KT 5SM HZ OVC028 13/07 A3037 RMK A01
KVAF 181955Z AUTO 08015G22KT 6SM HZ OVC029 13/07 A3037 RMK A01
KVAF 181935Z AUTO 08015KT 6SM HZ BKN027 OVC033 13/07 A3038 RMK A01
KVAF 181915Z AUTO 09013G18KT 5SM HZ SCT025 OVC032 13/08 A3041 RMK A01
KVAF 181855Z AUTO 08015KT 5SM HZ OVC029 13/07 A3041 RMK A01
KVAF 181835Z AUTO 09014KT 5SM HZ BKN028 OVC032 13/07 A3043 RMK A01
KVAF 181815Z AUTO 08016KT 5SM HZ BKN026 OVC031 13/07 A3044 RMK A01
KVAF 181755Z AUTO 08015G21KT 5SM HZ BKN027 OVC032 13/08 A3045 RMK A01
KVAF 181735Z AUTO 09015G20KT 6SM HZ SCT026 OVC034 13/07 A3046 RMK A01
KVAF 181715Z AUTO 08016KT 5SM HZ BKN028 OVC035 13/07 A3047 RMK A01
KVAF 181655Z AUTO 09016KT 5SM HZ BKN028 BKN035 OVC041 13/07 A3049 RMK A01
KVAF 181635Z AUTO 07015KT 5SM HZ BKN027 OVC035 13/07 A3050 RMK A01
KVAF 181615Z AUTO 08016KT 5SM HZ BKN027 OVC034 13/07 A3050 RMK A01
KVAF 181555Z AUTO 09014G21KT 6SM HZ BKN029 OVC034 13/07 A3049 RMK A01
KVAF 181535Z AUTO 08014G20KT 5SM HZ SCT028 BKN033 OVC039 12/06 A3050 RMK A01
KVAF 181515Z AUTO 08014KT 6SM HZ SCT028 BKN035 OVC041 12/06 A3049 RMK A01
KVAF 181455Z AUTO 07016KT 5SM HZ BKN028 BKN035 OVC042 12/07 A3048 RMK A01
KVAF 181435Z AUTO 08016KT 4SM HZ SCT027 BKN033 OVC039 12/06 A3048 RMK A01
KVAF 181355Z AUTO 07015G20KT 5SM HZ SCT027 OVC035 12/06 A3047 RMK A01
KVAF 181335Z AUTO 08012G19KT 5SM HZ FEW027 OVC034 12/06 A3047 RMK A01
KVAF 181315Z AUTO 06013G18KT 7SM BKN029 OVC036 11/06 A3047 RMK A01
KVAF 181255Z AUTO 08012G17KT 6SM HZ BKN029 OVC038 11/06 A3047 RMK A01
KVAF 181235Z AUTO 07013G18KT 7SM BKN029 OVC034 11/05 A3047 RMK A01
KVAF 181215Z AUTO 07014KT 6SM HZ SCT028 OVC036 11/05 A3046 RMK A01
KVAF 181155Z AUTO 06014KT 8SM SCT029 OVC037 11/06 A3045 RMK A01
KVAF 181135Z AUTO 07012KT 360V080 6SM HZ BKN028 OVC036 11/05 A3045 RMK A01
KVAF 181115Z AUTO 05012G19KT 6SM HZ BKN028 OVC036 11/05 A3045 RMK A01
KVAF 181055Z AUTO 07012G18KT 6SM HZ BKN030 OVC035 10/05 A3046 RMK A01
KVAF 181035Z AUTO 05014G21KT 6SM HZ BKN030 OVC034 10/05 A3045 RMK A01
KVAF 181015Z AUTO 06017KT 6SM HZ BKN029 OVC035 10/05 A3045 RMK A01
KVAF 180955Z AUTO 06014G20KT 6SM HZ BKN027 OVC032 10/04 A3047 RMK A01
KVAF 180935Z AUTO 06015G20KT 8SM SCT027 OVC033 10/04 A3047 RMK A01
KVAF 180915Z AUTO 07017KT 7SM SCT027 OVC032 10/04 A3047 RMK A01
KVAF 180855Z AUTO 07017KT 6SM HZ BKN031 OVC070 10/04 A3048 RMK A01
KVAF 180835Z AUTO 07015G22KT 360V090 7SM BKN031 OVC070 10/04 A3048 RMK A01
KVAF 180815Z AUTO 06017KT 8SM BKN028 BKN032 OVC070 10/04 A3049 RMK A01
KVAF 180755Z AUTO 07016G23KT 6SM HZ BKN028 BKN034 OVC070 10/04 A3049 RMK A01
KVAF 180735Z AUTO 07017KT 6SM HZ SCT028 BKN033 OVC070 10/03 A3050 RMK A01
KVAF 180715Z AUTO 06015KT 6SM HZ SCT028 BKN033 OVC070 09/03 A3052 RMK A01
KVAF 180655Z AUTO 05012G19KT 7SM BKN030 BKN035 OVC070 09/03 A3053 RMK A01
KVAF 180635Z AUTO 05009G20KT 7SM BKN031 OVC070 09/03 A3054 RMK A01
KVAF 180615Z AUTO 06015KT 6SM HZ BKN028 OVC034 09/03 A3053 RMK A01
KVAF 180555Z AUTO 04009G18KT 6SM HZ BKN028 OVC034 09/04 A3055 RMK A01
KVAF 180535Z AUTO 05011G20KT 6SM HZ BKN028 OVC033 09/03 A3056 RMK A01
KVAF 180515Z AUTO 04009G19KT 6SM HZ SCT027 OVC033 09/03 A3056 RMK A01
KVAF 180455Z AUTO 04010G21KT 7SM BKN028 BKN032 OVC037 09/03 A3057 RMK A01
KVAF 180435Z AUTO 04009G21KT 7SM BKN028 OVC035 09/03 A3057 RMK A01
KVAF 180415Z AUTO 04012G19KT 7SM BKN028 OVC036 08/03 A3057 RMK A01
KVAF 180355Z AUTO 04009G17KT 6SM HZ BKN027 OVC032 09/03 A3058 RMK A01
KVAF 180335Z AUTO 06021KT 6SM HZ BKN026 OVC031 08/03 A3056 RMK A01
KVAF 180315Z AUTO 06016G25KT 6SM HZ BKN026 OVC031 08/03 A3056 RMK A01
KVAF 180255Z AUTO 07018G23KT 7SM BKN026 OVC031 08/04 A3056 RMK A01
KVAF 180235Z AUTO 05015G24KT 7SM BKN025 OVC030 08/03 A3056 RMK A01
KVAF 180215Z AUTO 06019G26KT 7SM BKN025 OVC031 08/03 A3055 RMK A01
KVAF 180155Z AUTO 06018G26KT 020V080 5SM HZ BKN026 OVC033 08/03 A3055 RMK A01
KVAF 180135Z AUTO 05014G25KT 7SM BKN026 OVC034 08/02 A3055 RMK A01
KVAF 180115Z AUTO 06017G26KT 6SM HZ BKN025 OVC029 08/03 A3055 RMK A01
KVAF 180055Z AUTO 06020KT 6SM HZ FEW021 BKN026 OVC032 08/03 A3054 RMK A01
KVAF 180035Z AUTO 05017G25KT 7SM BKN027 OVC033 08/03 A3054 RMK A01
KVAF 180015Z AUTO 05016G24KT 6SM HZ BKN024 OVC029 07/02 A3053 RMK A01
KVAF 172355Z AUTO 04013G24KT 4SM HZ OVC024 08/03 A3052 RMK A01
KVAF 172335Z AUTO 05016G28KT 5SM HZ BKN023 OVC029 07/03 A3053 RMK A01
KVAF 172315Z AUTO 03013G21KT 5SM HZ BKN023 OVC029 07/03 A3053 RMK A01
KVAF 172255Z AUTO 03013G19KT 5SM HZ BKN024 BKN029 OVC034 07/02 A3054 RMK A01
KVAF 172235Z AUTO 03013G22KT 4SM HZ BKN022 OVC027 07/03 A3054 RMK A01
KVAF 172215Z AUTO 03013G21KT 5SM HZ BKN023 OVC030 07/02 A3055 RMK A01
KVAF 172155Z AUTO 03012G19KT 6SM HZ BKN025 OVC030 07/02 A3055 RMK A01
KVAF 172135Z AUTO 03011G18KT 010V070 6SM HZ SCT023 BKN029 OVC033 08/02 A3055 RMK A01
KVAF 172115Z AUTO 03012KT 6SM HZ BKN026 OVC032 08/02 A3055 RMK A01
KVAF 172055Z AUTO 04011G21KT 4SM HZ BKN024 OVC031 07/02 A3054 RMK A01
KVAF 172035Z AUTO 03013G20KT 6SM HZ BKN023 OVC029 07/02 A3055 RMK A01
KVAF 172015Z AUTO 03012G20KT 5SM HZ BKN024 OVC031 07/02 A3055 RMK A01
KVAF 171955Z AUTO 03011G21KT 5SM HZ BKN022 OVC027 07/02 A3055 RMK A01
KVAF 171935Z AUTO 03011G18KT 5SM HZ BKN022 BKN027 OVC032 07/02 A3056 RMK A01
KVAF 171915Z AUTO 03011G23KT 6SM HZ BKN026 OVC032 07/02 A3057 RMK A01
KVAF 171855Z AUTO 04015G20KT 5SM HZ BKN022 OVC028 07/02 A3058 RMK A01
KVAF 171835Z AUTO 03013G18KT 5SM HZ BKN023 BKN028 OVC033 07/02 A3060 RMK A01
KVAF 171815Z AUTO 04013G21KT 6SM HZ BKN024 OVC028 07/02 A3061 RMK A01
KVAF 171755Z AUTO 03011G17KT 5SM HZ BKN023 OVC029 07/02 A3061 RMK A01
KVAF 171735Z AUTO 03012G24KT 5SM HZ BKN025 OVC032 07/02 A3062 RMK A01